No particular awareness of the weather is required.    There are no Weather-warnings


Meteo18 Weather Cam more information Meteo18 Weather Cam


Thunder radar more information blitzortung!


Rain radar more information rain snow radar


Visit our other weather sites:

Template documentation
and downloads

And another site



Weather Underground History page Text

Daily Summary for April 12, 2017 Units:  English    Metric   Both
« Previous Day
Next Day »
Daily Weekly Monthly Yearly Custom
  High: Low: Average:
Temperature: 66.4 °F 37 °F 53.1 °F
Dew Point: 44.4 °F 32.5 °F 39 °F
Humidity: 85 % 41 % 61 %
Wind Speed: 11 mph 0 mph 1.8 mph
Wind Gust: 13 mph - -
Wind:- - SW
Pressure: 30.3 in 30.1 in -
Precipitation: 0 in    
Historical Graphs
 
 
Tabular Data for April 12, 2017
Time Temperature Dew Point Pressure Wind Wind Speed Wind Gust Humidity Rainfall Rate (Hourly)
00:02 46.9 °F 36.9 °F 30.3 in WNW 1 mph 2 mph 68 % 0 in
00:12 46.9 °F 36.5 °F 30.3 in Calm   2 mph 67 % 0 in
00:17 46.9 °F 36.5 °F 30.3 in Calm   2 mph 67 % 0 in
00:22 46.8 °F 36.3 °F 30.3 in NW 1 mph 2 mph 67 % 0 in
00:32 46 °F 36.1 °F 30.3 in NNW 1 mph 2 mph 68 % 0 in
00:37 45.9 °F 36 °F 30.3 in Calm   2 mph 68 % 0 in
00:42 45.9 °F 36.3 °F 30.3 in Calm   2 mph 69 % 0 in
00:47 45.7 °F 35.8 °F 30.3 in NW 1 mph 2 mph 68 % 0 in
00:52 45.7 °F 35.8 °F 30.3 in NW 1 mph 2 mph 68 % 0 in
00:57 45.9 °F 35.6 °F 30.3 in NW 1 mph 2 mph 67 % 0 in
01:02 46 °F 35.2 °F 30.3 in Calm   2 mph 66 % 0 in
01:07 45.9 °F 35.1 °F 30.3 in NW 1 mph 2 mph 66 % 0 in
01:12 45.9 °F 35.1 °F 30.3 in NW 1 mph 2 mph 66 % 0 in
01:17 45.7 °F 35.1 °F 30.3 in NNW 1 mph 2 mph 66 % 0 in
01:22 45.5 °F 34.9 °F 30.3 in North 1 mph 2 mph 66 % 0 in
01:32 44.2 °F 34.3 °F 30.3 in NW 2 mph 2 mph 68 % 0 in
01:37 43.3 °F 34.5 °F 30.3 in WNW 1 mph 2 mph 71 % 0 in
01:42 42.6 °F 34.5 °F 30.3 in WNW 2 mph 2 mph 73 % 0 in
01:47 42.6 °F 34.5 °F 30.3 in WNW 1 mph 2 mph 73 % 0 in
01:52 42.3 °F 34.5 °F 30.3 in Calm   2 mph 74 % 0 in
01:57 42.4 °F 34.3 °F 30.3 in Calm   2 mph 73 % 0 in
02:02 42.3 °F 34.5 °F 30.3 in WNW 1 mph 1 mph 74 % 0 in
02:07 41.5 °F 34.5 °F 30.3 in WNW 1 mph 1 mph 76 % 0 in
02:12 41.4 °F 34.3 °F 30.3 in Calm   1 mph 76 % 0 in
02:17 41.4 °F 34.3 °F 30.3 in Calm   1 mph 76 % 0 in
02:22 41.5 °F 34.2 °F 30.3 in Calm   1 mph 75 % 0 in
02:32 41.7 °F 34 °F 30.3 in WNW 1 mph 1 mph 74 % 0 in
02:37 41.7 °F 34.3 °F 30.3 in WNW 1 mph 1 mph 75 % 0 in
02:42 41.4 °F 34.3 °F 30.3 in Calm   1 mph 76 % 0 in
02:47 41.4 °F 34.3 °F 30.3 in Calm   1 mph 76 % 0 in
02:52 41.4 °F 34.3 °F 30.3 in Calm   1 mph 76 % 0 in
02:57 41.5 °F 34.2 °F 30.3 in Calm   1 mph 75 % 0 in
03:02 41.7 °F 34 °F 30.3 in WNW 1 mph 1 mph 74 % 0 in
03:07 41.7 °F 34 °F 30.3 in WNW 1 mph 2 mph 74 % 0 in
03:12 42.3 °F 34.2 °F 30.3 in Calm   2 mph 73 % 0 in
03:17 42.6 °F 34.2 °F 30.3 in North 1 mph 2 mph 72 % 0 in
03:22 43.2 °F 34 °F 30.3 in NW 1 mph 2 mph 70 % 0 in
03:32 42.3 °F 33.8 °F 30.3 in Calm   2 mph 72 % 0 in
03:37 41.5 °F 33.6 °F 30.3 in Calm   2 mph 73 % 0 in
03:42 42.3 °F 34.2 °F 30.3 in Calm   2 mph 73 % 0 in
03:52 41.2 °F 33.8 °F 30.3 in NW 1 mph 2 mph 75 % 0 in
03:57 41.5 °F 34.2 °F 30.3 in Calm   2 mph 75 % 0 in
04:02 41.4 °F 34 °F 30.3 in Calm   2 mph 75 % 0 in
04:07 40.6 °F 33.6 °F 30.3 in Calm   1 mph 76 % 0 in
04:12 40.5 °F 33.8 °F 30.3 in Calm   1 mph 77 % 0 in
04:17 40.6 °F 34 °F 30.3 in Calm     77 % 0 in
04:22 40.6 °F 34 °F 30.3 in Calm     77 % 0 in
04:32 41.2 °F 34.2 °F 30.3 in Calm     76 % 0 in
04:37 41.7 °F 34 °F 30.3 in Calm     74 % 0 in
04:42 41.5 °F 34.2 °F 30.3 in WNW 2 mph 2 mph 75 % 0 in
04:47 41 °F 34 °F 30.3 in WNW 1 mph 2 mph 76 % 0 in
04:52 41 °F 34 °F 30.3 in Calm   2 mph 76 % 0 in
04:57 40.8 °F 33.8 °F 30.3 in Calm   2 mph 76 % 0 in
05:02 40.6 °F 33.6 °F 30.3 in Calm   2 mph 76 % 0 in
05:12 40.5 °F 33.4 °F 30.3 in Calm   1 mph 76 % 0 in
05:17 40.3 °F 33.6 °F 30.3 in Calm   1 mph 77 % 0 in
05:22 39.9 °F 33.3 °F 30.3 in Calm   1 mph 77 % 0 in
05:27 39.4 °F 33.1 °F 30.3 in Calm   1 mph 78 % 0 in
05:32 38.7 °F 33.1 °F 30.3 in Calm   1 mph 80 % 0 in
05:37 37.9 °F 32.7 °F 30.2 in Calm   1 mph 81 % 0 in
05:42 37.6 °F 32.5 °F 30.2 in Calm   1 mph 82 % 0 in
05:47 37.2 °F 32.5 °F 30.2 in WNW 2 mph 2 mph 83 % 0 in
05:52 37.6 °F 33.3 °F 30.2 in WNW 1 mph 2 mph 84 % 0 in
06:02 38.5 °F 33.8 °F 30.2 in Calm   3 mph 83 % 0 in
06:12 38.5 °F 33.1 °F 30.2 in Calm   2 mph 81 % 0 in
06:17 38.1 °F 33.1 °F 30.2 in WNW 1 mph 1 mph 82 % 0 in
06:22 37.9 °F 32.7 °F 30.2 in Calm   1 mph 81 % 0 in
06:27 37.8 °F 32.7 °F 30.2 in Calm   1 mph 82 % 0 in
06:32 37.9 °F 33.3 °F 30.2 in Calm   1 mph 83 % 0 in
06:37 37.9 °F 33.3 °F 30.2 in Calm   1 mph 83 % 0 in
06:42 37.9 °F 33.3 °F 30.2 in Calm   1 mph 83 % 0 in
06:47 37.9 °F 32.9 °F 30.2 in Calm   1 mph 82 % 0 in
06:52 37.8 °F 32.7 °F 30.2 in Calm   1 mph 82 % 0 in
06:57 37.6 °F 32.9 °F 30.2 in Calm   1 mph 83 % 0 in
07:02 37.4 °F 33.1 °F 30.2 in Calm   1 mph 84 % 0 in
07:12 37.2 °F 32.9 °F 30.2 in Calm   1 mph 84 % 0 in
07:17 37.2 °F 32.9 °F 30.2 in Calm   1 mph 84 % 0 in
07:22 37 °F 32.9 °F 30.2 in Calm   1 mph 85 % 0 in
07:32 37 °F 32.9 °F 30.2 in Calm   1 mph 85 % 0 in
07:37 37.6 °F 33.4 °F 30.2 in WNW 1 mph 1 mph 85 % 0 in
07:42 38.1 °F 33.8 °F 30.2 in Calm   1 mph 84 % 0 in
07:52 39.6 °F 34.2 °F 30.3 in Calm   1 mph 81 % 0 in
07:57 39.7 °F 34.2 °F 30.3 in Calm     80 % 0 in
08:07 40.6 °F 34.9 °F 30.3 in Calm     80 % 0 in
08:12 41.9 °F 36.9 °F 30.3 in Calm     82 % 0 in
08:17 43 °F 36.3 °F 30.3 in Calm     77 % 0 in
08:22 43 °F 36 °F 30.3 in Calm     76 % 0 in
08:27 42.6 °F 36.5 °F 30.3 in Calm     79 % 0 in
08:32 43.2 °F 37.4 °F 30.3 in Calm     80 % 0 in
08:42 45.3 °F 38.8 °F 30.3 in NNW 1 mph 1 mph 78 % 0 in
08:47 46 °F 38.8 °F 30.3 in Calm   3 mph 76 % 0 in
08:52 46.9 °F 38.3 °F 30.3 in Calm   3 mph 72 % 0 in
08:59 47.7 °F 39 °F 30.3 in Calm   3 mph 72 % 0 in
09:07 49.1 °F 40.5 °F 30.3 in Calm   1 mph 72 % 0 in
09:12 50.2 °F 41.2 °F 30.3 in Calm   1 mph 71 % 0 in
09:17 50.7 °F 40.1 °F 30.3 in Calm     67 % 0 in
09:22 51.4 °F 40.5 °F 30.3 in Calm     66 % 0 in
09:32 52 °F 39.7 °F 30.3 in North 2 mph   63 % 0 in
09:42 52.5 °F 40.6 °F 30.3 in Calm   3 mph 64 % 0 in
09:47 53.1 °F 41.2 °F 30.3 in NE 1 mph 4 mph 64 % 0 in
09:52 53.4 °F 41.2 °F 30.3 in NE 2 mph 4 mph 63 % 0 in
09:57 53.8 °F 40.6 °F 30.3 in Calm   3 mph 61 % 0 in
10:02 54.3 °F 41.2 °F 30.3 in Calm   3 mph 61 % 0 in
10:07 54.9 °F 41.2 °F 30.3 in North 1 mph 2 mph 60 % 0 in
10:12 54.9 °F 40.3 °F 30.3 in Calm   2 mph 58 % 0 in
10:17 55.4 °F 41.4 °F 30.3 in Calm   3 mph 59 % 0 in
10:22 55.2 °F 38.8 °F 30.3 in East 2 mph 3 mph 54 % 0 in
10:32 55.4 °F 39 °F 30.3 in Calm   4 mph 54 % 0 in
10:37 55.2 °F 38.8 °F 30.3 in SE 1 mph 4 mph 54 % 0 in
10:42 55.8 °F 38.8 °F 30.3 in SE 1 mph 4 mph 53 % 0 in
10:47 56.5 °F 40.1 °F 30.3 in Calm   4 mph 54 % 0 in
10:52 57.2 °F 40.3 °F 30.3 in ESE 1 mph 4 mph 53 % 0 in
10:57 57 °F 39.6 °F 30.3 in SE 1 mph 4 mph 52 % 0 in
11:02 57 °F 39 °F 30.2 in Calm   4 mph 51 % 0 in
11:12 57.4 °F 38.3 °F 30.2 in Calm   4 mph 49 % 0 in
11:17 58.1 °F 40.1 °F 30.2 in East 2 mph 4 mph 51 % 0 in
11:22 58.3 °F 39.2 °F 30.2 in Calm   4 mph 49 % 0 in
11:32 59.4 °F 39.7 °F 30.2 in Calm   3 mph 48 % 0 in
11:37 58.8 °F 39.2 °F 30.2 in Calm   3 mph 48 % 0 in
11:42 59.2 °F 39.6 °F 30.2 in ESE 2 mph 3 mph 48 % 0 in
11:52 60.4 °F 39.6 °F 30.2 in SE 2 mph 3 mph 46 % 0 in
11:57 60.3 °F 39.4 °F 30.2 in SE 1 mph 3 mph 46 % 0 in
12:02 59.7 °F 39.9 °F 30.2 in South 1 mph 5 mph 48 % 0 in
12:12 59.9 °F 39.6 °F 30.2 in ENE 4 mph 5 mph 47 % 0 in
12:17 59.7 °F 40.5 °F 30.2 in East 1 mph 5 mph 49 % 0 in
12:22 59.7 °F 39.4 °F 30.2 in North 3 mph 5 mph 47 % 0 in
12:27 59.5 °F 39.4 °F 30.2 in Calm   4 mph 47 % 0 in
12:32 59.5 °F 39.4 °F 30.2 in NE 4 mph 4 mph 47 % 0 in
12:42 60.1 °F 39.7 °F 30.2 in East 3 mph 6 mph 47 % 0 in
12:52 61.2 °F 40.8 °F 30.2 in Calm   6 mph 47 % 0 in
12:57 61.5 °F 40.5 °F 30.2 in Calm   6 mph 46 % 0 in
13:02 61.3 °F 39.7 °F 30.2 in SSE 3 mph 5 mph 45 % 0 in
13:12 61 °F 40.1 °F 30.2 in ENE 4 mph 5 mph 46 % 0 in
13:17 61 °F 40.6 °F 30.2 in NNE 2 mph 5 mph 47 % 0 in
13:22 60.6 °F 40.3 °F 30.2 in ESE 2 mph 5 mph 47 % 0 in
13:32 61.2 °F 40.8 °F 30.2 in SSE 2 mph 6 mph 47 % 0 in
13:37 61.5 °F 40.5 °F 30.2 in ENE 2 mph 6 mph 46 % 0 in
13:42 61.2 °F 40.8 °F 30.2 in ENE 2 mph 5 mph 47 % 0 in
13:47 61 °F 40.6 °F 30.2 in Calm   5 mph 47 % 0 in
13:52 61.7 °F 41.2 °F 30.2 in Calm   5 mph 47 % 0 in
13:57 62.4 °F 39.6 °F 30.2 in SE 3 mph 5 mph 43 % 0 in
14:02 62.4 °F 39.6 °F 30.2 in SW 3 mph 6 mph 43 % 0 in
14:12 63 °F 41.9 °F 30.2 in SW 5 mph 8 mph 46 % 0 in
14:17 63.3 °F 41 °F 30.2 in West 2 mph 8 mph 44 % 0 in
14:22 63 °F 40.6 °F 30.2 in West 3 mph 10 mph 44 % 0 in
14:27 63 °F 41.9 °F 30.2 in SW 4 mph 10 mph 46 % 0 in
14:32 63 °F 42.4 °F 30.2 in ESE 3 mph 10 mph 47 % 0 in
14:37 63.1 °F 41.5 °F 30.2 in WSW 4 mph 8 mph 45 % 0 in
14:42 63.1 °F 41.5 °F 30.2 in South 4 mph 8 mph 45 % 0 in
14:47 63 °F 41.4 °F 30.2 in WSW 4 mph 8 mph 45 % 0 in
14:52 63 °F 42.4 °F 30.2 in SW 4 mph 10 mph 47 % 0 in
14:57 62.8 °F 41.7 °F 30.2 in SW 2 mph 10 mph 46 % 0 in
15:02 63.1 °F 41.5 °F 30.2 in SW 5 mph 9 mph 45 % 0 in
15:12 63.5 °F 43 °F 30.2 in SSW 2 mph 9 mph 47 % 0 in
15:22 63.7 °F 41.4 °F 30.2 in East 1 mph 8 mph 44 % 0 in
15:32 64.4 °F 42.6 °F 30.2 in SSE 5 mph 8 mph 45 % 0 in
15:37 64.8 °F 42.3 °F 30.2 in SSW 8 mph 9 mph 44 % 0 in
15:42 64.6 °F 41.5 °F 30.2 in SW 2 mph 9 mph 43 % 0 in
15:52 64.9 °F 43.7 °F 30.1 in ESE 7 mph 8 mph 46 % 0 in
15:57 64.9 °F 43.7 °F 30.1 in South 3 mph 9 mph 46 % 0 in
16:02 64.8 °F 41.7 °F 30.1 in SW 4 mph 9 mph 43 % 0 in
16:12 64.8 °F 42.3 °F 30.1 in SSW 2 mph 12 mph 44 % 0 in
16:17 64.8 °F 43 °F 30.1 in SSW 1 mph 12 mph 45 % 0 in
16:22 64.9 °F 41.9 °F 30.1 in SW 11 mph 11 mph 43 % 0 in
16:27 65.3 °F 42.3 °F 30.1 in SW 8 mph 13 mph 43 % 0 in
16:32 65.5 °F 41.2 °F 30.1 in SSW 7 mph 13 mph 41 % 0 in
16:37 65.3 °F 42.3 °F 30.1 in SE 3 mph 13 mph 43 % 0 in
16:42 65.5 °F 41.7 °F 30.1 in SE 1 mph 13 mph 42 % 0 in
16:47 65.8 °F 42.8 °F 30.1 in South 7 mph 13 mph 43 % 0 in
16:52 65.5 °F 41.7 °F 30.1 in West 1 mph 9 mph 42 % 0 in
16:57 65.5 °F 41.7 °F 30.1 in NW 2 mph 9 mph 42 % 0 in
17:02 65.7 °F 42.6 °F 30.1 in NW 3 mph 8 mph 43 % 0 in
17:07 66 °F 42.8 °F 30.1 in WSW 4 mph 9 mph 43 % 0 in
17:12 65.8 °F 43.3 °F 30.1 in Calm   10 mph 44 % 0 in
17:17 65.8 °F 42.8 °F 30.1 in WSW 2 mph 10 mph 43 % 0 in
17:22 66 °F 43.5 °F 30.1 in WNW 6 mph 10 mph 44 % 0 in
17:27 65.7 °F 42.6 °F 30.1 in WSW 3 mph 8 mph 43 % 0 in
17:32 65.8 °F 42.8 °F 30.1 in WSW 9 mph 9 mph 43 % 0 in
17:37 65.8 °F 43.3 °F 30.1 in WNW 3 mph 10 mph 44 % 0 in
17:42 66.4 °F 43.9 °F 30.1 in WNW 4 mph 10 mph 44 % 0 in
17:47 66 °F 42.3 °F 30.1 in WSW 3 mph 9 mph 42 % 0 in
17:52 66 °F 43.5 °F 30.1 in SW 5 mph 9 mph 44 % 0 in
17:57 66.2 °F 43.7 °F 30.1 in WNW 8 mph 9 mph 44 % 0 in
18:02 66.2 °F 43 °F 30.1 in West 8 mph 10 mph 43 % 0 in
18:12 66.2 °F 43 °F 30.1 in WSW 5 mph 10 mph 43 % 0 in
18:22 66.4 °F 43.2 °F 30.1 in SW 3 mph 9 mph 43 % 0 in
18:27 66.4 °F 43.9 °F 30.1 in West 9 mph 9 mph 44 % 0 in
18:32 66.2 °F 43.7 °F 30.1 in West 6 mph 9 mph 44 % 0 in
18:42 66.2 °F 43 °F 30.1 in SW 5 mph 13 mph 43 % 0 in
18:47 66.2 °F 43.7 °F 30.1 in SSW 5 mph 13 mph 44 % 0 in
18:52 66 °F 42.8 °F 30.1 in West 4 mph 13 mph 43 % 0 in
18:57 66 °F 42.8 °F 30.1 in WSW 3 mph 11 mph 43 % 0 in
19:02 65.8 °F 42.8 °F 30.1 in SSW 5 mph 11 mph 43 % 0 in
19:12 65.7 °F 42.6 °F 30.1 in SSW 6 mph 11 mph 43 % 0 in
19:17 65.7 °F 42.6 °F 30.1 in WSW 7 mph 10 mph 43 % 0 in
19:22 65.5 °F 43 °F 30.1 in SW 3 mph 12 mph 44 % 0 in
19:32 65.1 °F 43.3 °F 30.1 in SSW 5 mph 12 mph 45 % 0 in
19:37 64.9 °F 43.7 °F 30.1 in SW 5 mph 10 mph 46 % 0 in
19:42 64.9 °F 43.7 °F 30.1 in WSW 2 mph 10 mph 46 % 0 in
19:47 64.8 °F 43.5 °F 30.1 in WSW 4 mph 9 mph 46 % 0 in
19:52 64.4 °F 43.2 °F 30.1 in West 4 mph 7 mph 46 % 0 in
19:57 63.9 °F 42.6 °F 30.1 in WSW 5 mph 10 mph 46 % 0 in
20:02 63.5 °F 43 °F 30.1 in West 5 mph 13 mph 47 % 0 in
20:07 63 °F 43 °F 30.1 in WSW 5 mph 13 mph 48 % 0 in
20:12 62.6 °F 43.2 °F 30.1 in West 4 mph 13 mph 49 % 0 in
20:22 61.9 °F 43.5 °F 30.1 in West 2 mph 9 mph 51 % 0 in
20:32 61.2 °F 43.9 °F 30.1 in WSW 6 mph 8 mph 53 % 0 in
20:37 61 °F 43.7 °F 30.1 in West 4 mph 8 mph 53 % 0 in
20:47 60.1 °F 43.9 °F 30.1 in West 3 mph 6 mph 55 % 0 in
20:52 59.9 °F 44.2 °F 30.1 in WSW 4 mph 6 mph 56 % 0 in
21:02 59.2 °F 44.4 °F 30.1 in WSW 5 mph 6 mph 58 % 0 in
21:12 58.3 °F 44.4 °F 30.1 in West 2 mph 6 mph 60 % 0 in
21:17 57.9 °F 44.1 °F 30.1 in WSW 4 mph 6 mph 60 % 0 in
21:22 57.9 °F 44.1 °F 30.1 in West 1 mph 5 mph 60 % 0 in
21:32 57.7 °F 43.9 °F 30.1 in WSW 2 mph 5 mph 60 % 0 in
21:37 57.6 °F 44.2 °F 30.1 in WNW 3 mph 4 mph 61 % 0 in
21:47 56.3 °F 43.9 °F 30.1 in NNW 1 mph 4 mph 63 % 0 in
21:57 56.5 °F 43.2 °F 30.1 in NW 2 mph 4 mph 61 % 0 in
22:02 56.5 °F 42.8 °F 30.1 in WNW 1 mph 4 mph 60 % 0 in
22:12 56.5 °F 42.8 °F 30.1 in WNW 1 mph 5 mph 60 % 0 in
22:17 56.1 °F 42.4 °F 30.1 in WNW 2 mph 5 mph 60 % 0 in
22:22 56.1 °F 42.4 °F 30.1 in WNW 1 mph 5 mph 60 % 0 in
22:32 56.1 °F 41.9 °F 30.1 in WNW 1 mph 5 mph 59 % 0 in
22:37 56.1 °F 41.9 °F 30.1 in WNW 2 mph 5 mph 59 % 0 in
22:42 55.9 °F 41.9 °F 30.1 in NW 2 mph 5 mph 59 % 0 in
22:47 55.9 °F 42.3 °F 30.1 in WNW 3 mph 5 mph 60 % 0 in
22:52 55.9 °F 42.3 °F 30.1 in WNW 1 mph 4 mph 60 % 0 in
22:57 55.8 °F 42.1 °F 30.1 in Calm   3 mph 60 % 0 in
23:02 55.6 °F 42.3 °F 30.1 in NW 1 mph 3 mph 61 % 0 in
23:07 55.6 °F 42.3 °F 30.1 in West 1 mph 3 mph 61 % 0 in
23:17 54.7 °F 41.9 °F 30.1 in Calm   3 mph 62 % 0 in
23:22 54.5 °F 42.1 °F 30.1 in Calm   2 mph 63 % 0 in
23:32 54.1 °F 42.3 °F 30.1 in WNW 2 mph 2 mph 64 % 0 in
23:37 54 °F 42.1 °F 30.1 in WNW 3 mph 3 mph 64 % 0 in
23:42 54 °F 42.1 °F 30.1 in WNW 2 mph 3 mph 64 % 0 in
23:47 53.8 °F 42.3 °F 30.1 in West 2 mph 4 mph 65 % 0 in
23:52 53.8 °F 42.3 °F 30.1 in WNW 2 mph 4 mph 65 % 0 in
23:57 53.8 °F 42.3 °F 30.1 in West 1 mph 4 mph 65 % 0 in
Meteo18
Compliments of Weather Underground - 4 mb

Script developed by  Jim McMurry - jmcmurry@mwt.net Adapted for the template by  Wim van der Kuil - Leuven-Template.eu

You find our weather info also at:

European Weather Network

Weather Underground

Equipment we use:

Weather-station
Davis Vue

Weather-program
Meteohub

Weather-server
Raspberry PI 2 B+

Provider
1 and 1

Davis Vue

Meteohub

Raspberry PI 2 B+

1 and 1